sensor_id;sensor_type;location;lat;lon;timestamp;pressure;altitude;pressure_sealevel;temperature;humidity
13080;BME280;6606;49.154;9.280;2023-02-10T00:00:43;101617.19;;;-4.25;100.00
13080;BME280;6606;49.154;9.280;2023-02-10T00:03:24;101613.53;;;-4.30;100.00
13080;BME280;6606;49.154;9.280;2023-02-10T00:06:08;101599.56;;;-4.34;100.00
13080;BME280;6606;49.154;9.280;2023-02-10T00:08:52;101597.66;;;-4.38;100.00
13080;BME280;6606;49.154;9.280;2023-02-10T00:11:34;101598.53;;;-4.37;100.00
13080;BME280;6606;49.154;9.280;2023-02-10T00:14:33;101603.09;;;-4.32;100.00
13080;BME280;6606;49.154;9.280;2023-02-10T00:17:16;101605.75;;;-4.30;100.00
13080;BME280;6606;49.154;9.280;2023-02-10T00:19:59;101604.13;;;-4.28;100.00
13080;BME280;6606;49.154;9.280;2023-02-10T00:22:41;101610.94;;;-4.30;100.00
13080;BME280;6606;49.154;9.280;2023-02-10T00:25:22;101623.91;;;-4.29;100.00
13080;BME280;6606;49.154;9.280;2023-02-10T00:28:04;101619.66;;;-4.28;100.00
13080;BME280;6606;49.154;9.280;2023-02-10T00:30:47;101617.97;;;-4.26;100.00
13080;BME280;6606;49.154;9.280;2023-02-10T00:33:30;101614.31;;;-4.31;100.00
13080;BME280;6606;49.154;9.280;2023-02-10T00:36:13;101631.50;;;-4.33;100.00
13080;BME280;6606;49.154;9.280;2023-02-10T00:38:55;101631.50;;;-4.33;100.00
13080;BME280;6606;49.154;9.280;2023-02-10T00:41:37;101636.69;;;-4.33;100.00
13080;BME280;6606;49.154;9.280;2023-02-10T00:44:18;101647.16;;;-4.30;100.00
13080;BME280;6606;49.154;9.280;2023-02-10T00:47:00;101650.44;;;-4.34;100.00
13080;BME280;6606;49.154;9.280;2023-02-10T00:49:43;101651.19;;;-4.37;100.00
13080;BME280;6606;49.154;9.280;2023-02-10T00:52:25;101648.47;;;-4.40;100.00
13080;BME280;6606;49.154;9.280;2023-02-10T00:55:07;101649.94;;;-4.47;100.00
13080;BME280;6606;49.154;9.280;2023-02-10T00:57:49;101644.75;;;-4.47;100.00
13080;BME280;6606;49.154;9.280;2023-02-10T01:00:31;101643.66;;;-4.52;100.00
13080;BME280;6606;49.154;9.280;2023-02-10T01:03:13;101647.00;;;-4.54;100.00
13080;BME280;6606;49.154;9.280;2023-02-10T01:05:56;101648.56;;;-4.58;100.00
13080;BME280;6606;49.154;9.280;2023-02-10T01:08:38;101651.09;;;-4.59;100.00
13080;BME280;6606;49.154;9.280;2023-02-10T01:11:20;101653.94;;;-4.53;100.00
13080;BME280;6606;49.154;9.280;2023-02-10T01:14:01;101656.53;;;-4.53;100.00
13080;BME280;6606;49.154;9.280;2023-02-10T01:16:44;101656.63;;;-4.52;100.00
13080;BME280;6606;49.154;9.280;2023-02-10T01:19:25;101668.59;;;-4.54;100.00
13080;BME280;6606;49.154;9.280;2023-02-10T01:22:08;101670.09;;;-4.59;100.00
13080;BME280;6606;49.154;9.280;2023-02-10T01:24:51;101672.75;;;-4.57;100.00
13080;BME280;6606;49.154;9.280;2023-02-10T01:27:33;101666.53;;;-4.61;100.00
13080;BME280;6606;49.154;9.280;2023-02-10T01:30:15;101671.38;;;-4.69;100.00
13080;BME280;6606;49.154;9.280;2023-02-10T01:32:56;101679.22;;;-4.67;100.00
13080;BME280;6606;49.154;9.280;2023-02-10T01:35:38;101678.25;;;-4.69;100.00
13080;BME280;6606;49.154;9.280;2023-02-10T01:38:22;101685.91;;;-4.72;100.00
13080;BME280;6606;49.154;9.280;2023-02-10T01:41:05;101677.88;;;-4.78;100.00
13080;BME280;6606;49.154;9.280;2023-02-10T01:43:59;101681.25;;;-4.79;100.00
13080;BME280;6606;49.154;9.280;2023-02-10T01:46:41;101674.19;;;-4.83;100.00
13080;BME280;6606;49.154;9.280;2023-02-10T01:49:24;101680.34;;;-4.81;100.00
13080;BME280;6606;49.154;9.280;2023-02-10T01:52:09;101685.41;;;-4.83;100.00
13080;BME280;6606;49.154;9.280;2023-02-10T01:54:56;101693.84;;;-4.87;100.00
13080;BME280;6606;49.154;9.280;2023-02-10T01:57:42;101696.38;;;-4.89;100.00
13080;BME280;6606;49.154;9.280;2023-02-10T02:00:25;101695.34;;;-4.92;100.00
13080;BME280;6606;49.154;9.280;2023-02-10T02:03:07;101690.94;;;-4.95;100.00
13080;BME280;6606;49.154;9.280;2023-02-10T02:05:50;101691.69;;;-4.97;100.00
13080;BME280;6606;49.154;9.280;2023-02-10T02:08:34;101691.59;;;-4.99;100.00
13080;BME280;6606;49.154;9.280;2023-02-10T02:11:21;101690.03;;;-4.95;100.00
13080;BME280;6606;49.154;9.280;2023-02-10T02:14:14;101701.13;;;-4.98;100.00
13080;BME280;6606;49.154;9.280;2023-02-10T02:17:06;101690.66;;;-5.01;100.00
13080;BME280;6606;49.154;9.280;2023-02-10T02:20:06;101699.09;;;-5.05;100.00
13080;BME280;6606;49.154;9.280;2023-02-10T02:23:34;101697.13;;;-5.11;100.00
13080;BME280;6606;49.154;9.280;2023-02-10T02:26:59;101703.16;;;-5.10;100.00
13080;BME280;6606;49.154;9.280;2023-02-10T02:33:22;101702.06;;;-5.15;100.00
13080;BME280;6606;49.154;9.280;2023-02-10T02:36:09;101696.31;;;-5.27;100.00
13080;BME280;6606;49.154;9.280;2023-02-10T02:38:59;101705.91;;;-5.25;100.00
13080;BME280;6606;49.154;9.280;2023-02-10T02:41:41;101698.38;;;-5.20;100.00
13080;BME280;6606;49.154;9.280;2023-02-10T02:44:22;101693.94;;;-5.23;100.00
13080;BME280;6606;49.154;9.280;2023-02-10T02:47:09;101697.50;;;-5.21;100.00
13080;BME280;6606;49.154;9.280;2023-02-10T02:50:01;101695.94;;;-5.17;100.00
13080;BME280;6606;49.154;9.280;2023-02-10T02:52:55;101697.78;;;-5.15;100.00
13080;BME280;6606;49.154;9.280;2023-02-10T02:55:52;101705.63;;;-5.13;100.00
13080;BME280;6606;49.154;9.280;2023-02-10T02:58:46;101712.09;;;-5.21;100.00
13080;BME280;6606;49.154;9.280;2023-02-10T03:01:34;101710.63;;;-5.16;100.00
13080;BME280;6606;49.154;9.280;2023-02-10T03:04:17;101712.31;;;-5.17;100.00
13080;BME280;6606;49.154;9.280;2023-02-10T03:07:01;101709.72;;;-5.17;100.00
13080;BME280;6606;49.154;9.280;2023-02-10T03:09:43;101709.69;;;-5.18;100.00
13080;BME280;6606;49.154;9.280;2023-02-10T03:12:25;101708.84;;;-5.17;100.00
13080;BME280;6606;49.154;9.280;2023-02-10T03:15:07;101706.41;;;-5.14;100.00
13080;BME280;6606;49.154;9.280;2023-02-10T03:17:49;101705.75;;;-5.10;100.00
13080;BME280;6606;49.154;9.280;2023-02-10T03:20:31;101703.03;;;-5.13;100.00
13080;BME280;6606;49.154;9.280;2023-02-10T03:23:14;101704.78;;;-5.12;100.00
13080;BME280;6606;49.154;9.280;2023-02-10T03:25:57;101709.22;;;-5.10;100.00
13080;BME280;6606;49.154;9.280;2023-02-10T03:28:39;101712.41;;;-5.15;100.00
13080;BME280;6606;49.154;9.280;2023-02-10T03:31:21;101727.91;;;-5.15;100.00
13080;BME280;6606;49.154;9.280;2023-02-10T03:34:03;101721.50;;;-5.23;100.00
13080;BME280;6606;49.154;9.280;2023-02-10T03:36:44;101717.13;;;-5.24;100.00
13080;BME280;6606;49.154;9.280;2023-02-10T03:39:28;101714.63;;;-5.23;100.00
13080;BME280;6606;49.154;9.280;2023-02-10T03:42:09;101719.84;;;-5.21;100.00
13080;BME280;6606;49.154;9.280;2023-02-10T03:44:51;101720.69;;;-5.22;100.00
13080;BME280;6606;49.154;9.280;2023-02-10T03:47:33;101732.34;;;-5.31;100.00
13080;BME280;6606;49.154;9.280;2023-02-10T03:50:15;101744.09;;;-5.37;100.00
13080;BME280;6606;49.154;9.280;2023-02-10T03:52:56;101734.56;;;-5.56;100.00
13080;BME280;6606;49.154;9.280;2023-02-10T03:55:39;101746.09;;;-5.49;100.00
13080;BME280;6606;49.154;9.280;2023-02-10T03:58:21;101741.06;;;-5.46;100.00
13080;BME280;6606;49.154;9.280;2023-02-10T04:01:09;101743.75;;;-5.45;100.00
13080;BME280;6606;49.154;9.280;2023-02-10T04:03:51;101742.91;;;-5.44;100.00
13080;BME280;6606;49.154;9.280;2023-02-10T04:06:32;101740.09;;;-5.48;100.00
13080;BME280;6606;49.154;9.280;2023-02-10T04:09:14;101732.56;;;-5.80;100.00
13080;BME280;6606;49.154;9.280;2023-02-10T04:11:57;101731.41;;;-5.68;100.00
13080;BME280;6606;49.154;9.280;2023-02-10T04:14:39;101733.41;;;-5.63;100.00
13080;BME280;6606;49.154;9.280;2023-02-10T04:17:21;101737.50;;;-5.66;100.00
13080;BME280;6606;49.154;9.280;2023-02-10T04:20:03;101744.47;;;-5.65;100.00
13080;BME280;6606;49.154;9.280;2023-02-10T04:22:45;101746.19;;;-5.66;100.00
13080;BME280;6606;49.154;9.280;2023-02-10T04:25:26;101747.84;;;-5.66;100.00
13080;BME280;6606;49.154;9.280;2023-02-10T04:28:09;101751.25;;;-5.67;100.00
13080;BME280;6606;49.154;9.280;2023-02-10T04:30:51;101758.34;;;-5.63;100.00
13080;BME280;6606;49.154;9.280;2023-02-10T04:33:33;101758.19;;;-5.66;100.00
13080;BME280;6606;49.154;9.280;2023-02-10T04:36:15;101753.97;;;-5.64;100.00
13080;BME280;6606;49.154;9.280;2023-02-10T04:38:57;101759.09;;;-5.66;100.00
13080;BME280;6606;49.154;9.280;2023-02-10T04:41:39;101760.94;;;-5.63;100.00
13080;BME280;6606;49.154;9.280;2023-02-10T04:44:22;101759.97;;;-5.65;100.00
13080;BME280;6606;49.154;9.280;2023-02-10T04:47:03;101771.19;;;-5.65;100.00
13080;BME280;6606;49.154;9.280;2023-02-10T04:49:45;101761.59;;;-5.67;100.00
13080;BME280;6606;49.154;9.280;2023-02-10T04:52:27;101766.59;;;-5.70;100.00
13080;BME280;6606;49.154;9.280;2023-02-10T04:55:09;101770.88;;;-5.71;100.00
13080;BME280;6606;49.154;9.280;2023-02-10T04:57:50;101768.06;;;-5.76;100.00
13080;BME280;6606;49.154;9.280;2023-02-10T05:00:34;101765.97;;;-5.83;100.00
13080;BME280;6606;49.154;9.280;2023-02-10T05:03:15;101763.63;;;-5.78;100.00
13080;BME280;6606;49.154;9.280;2023-02-10T05:05:57;101766.22;;;-5.78;100.00
13080;BME280;6606;49.154;9.280;2023-02-10T05:08:39;101763.88;;;-5.73;100.00
13080;BME280;6606;49.154;9.280;2023-02-10T05:11:21;101761.28;;;-5.73;100.00
13080;BME280;6606;49.154;9.280;2023-02-10T05:14:03;101768.34;;;-5.69;100.00
13080;BME280;6606;49.154;9.280;2023-02-10T05:16:46;101770.94;;;-5.69;100.00
13080;BME280;6606;49.154;9.280;2023-02-10T05:19:28;101785.50;;;-5.71;100.00
13080;BME280;6606;49.154;9.280;2023-02-10T05:22:10;101787.25;;;-5.70;100.00
13080;BME280;6606;49.154;9.280;2023-02-10T05:24:51;101788.09;;;-5.71;100.00
13080;BME280;6606;49.154;9.280;2023-02-10T05:27:35;101795.75;;;-5.73;100.00
13080;BME280;6606;49.154;9.280;2023-02-10T05:30:17;101790.34;;;-5.78;100.00
13080;BME280;6606;49.154;9.280;2023-02-10T05:33:00;101791.16;;;-5.79;100.00
13080;BME280;6606;49.154;9.280;2023-02-10T05:35:41;101798.19;;;-5.76;100.00
13080;BME280;6606;49.154;9.280;2023-02-10T05:38:23;101797.28;;;-5.77;100.00
13080;BME280;6606;49.154;9.280;2023-02-10T05:41:06;101803.94;;;-5.82;100.00
13080;BME280;6606;49.154;9.280;2023-02-10T05:43:48;101808.34;;;-5.79;100.00
13080;BME280;6606;49.154;9.280;2023-02-10T05:46:30;101805.84;;;-5.78;100.00
13080;BME280;6606;49.154;9.280;2023-02-10T05:49:13;101799.06;;;-5.76;100.00
13080;BME280;6606;49.154;9.280;2023-02-10T05:51:55;101811.00;;;-5.78;100.00
13080;BME280;6606;49.154;9.280;2023-02-10T05:54:37;101815.38;;;-5.77;100.00
13080;BME280;6606;49.154;9.280;2023-02-10T05:57:20;101823.13;;;-5.77;100.00
13080;BME280;6606;49.154;9.280;2023-02-10T06:00:03;101819.56;;;-5.79;100.00
13080;BME280;6606;49.154;9.280;2023-02-10T06:02:52;101830.63;;;-5.81;100.00
13080;BME280;6606;49.154;9.280;2023-02-10T06:05:35;101833.25;;;-5.80;100.00
13080;BME280;6606;49.154;9.280;2023-02-10T06:08:17;101836.91;;;-5.76;100.00
13080;BME280;6606;49.154;9.280;2023-02-10T06:10:59;101842.72;;;-5.80;100.00
13080;BME280;6606;49.154;9.280;2023-02-10T06:13:41;101846.28;;;-5.78;100.00
13080;BME280;6606;49.154;9.280;2023-02-10T06:16:22;101844.50;;;-5.79;100.00
13080;BME280;6606;49.154;9.280;2023-02-10T06:19:04;101844.91;;;-5.88;100.00
13080;BME280;6606;49.154;9.280;2023-02-10T06:21:48;101854.50;;;-5.85;100.00
13080;BME280;6606;49.154;9.280;2023-02-10T06:24:29;101850.47;;;-5.80;100.00
13080;BME280;6606;49.154;9.280;2023-02-10T06:27:11;101849.56;;;-5.81;100.00
13080;BME280;6606;49.154;9.280;2023-02-10T06:29:54;101863.22;;;-5.83;100.00
13080;BME280;6606;49.154;9.280;2023-02-10T06:32:36;101856.19;;;-5.86;100.00
13080;BME280;6606;49.154;9.280;2023-02-10T06:35:17;101866.69;;;-5.83;100.00
13080;BME280;6606;49.154;9.280;2023-02-10T06:38:01;101861.13;;;-5.90;100.00
13080;BME280;6606;49.154;9.280;2023-02-10T06:40:42;101862.50;;;-5.81;100.00
13080;BME280;6606;49.154;9.280;2023-02-10T06:43:24;101866.19;;;-5.76;100.00
13080;BME280;6606;49.154;9.280;2023-02-10T06:46:06;101869.75;;;-5.73;100.00
13080;BME280;6606;49.154;9.280;2023-02-10T06:48:48;101876.84;;;-5.69;100.00
13080;BME280;6606;49.154;9.280;2023-02-10T06:51:30;101873.75;;;-5.62;100.00
13080;BME280;6606;49.154;9.280;2023-02-10T06:54:13;101876.66;;;-5.56;100.00
13080;BME280;6606;49.154;9.280;2023-02-10T06:56:54;101874.31;;;-5.52;100.00
13080;BME280;6606;49.154;9.280;2023-02-10T06:59:36;101878.25;;;-5.42;100.00
13080;BME280;6606;49.154;9.280;2023-02-10T07:02:18;101877.50;;;-5.39;100.00
13080;BME280;6606;49.154;9.280;2023-02-10T07:05:00;101864.78;;;-5.35;100.00
13080;BME280;6606;49.154;9.280;2023-02-10T07:07:43;101875.75;;;-5.22;100.00
13080;BME280;6606;49.154;9.280;2023-02-10T07:10:26;101883.31;;;-5.09;100.00
13080;BME280;6606;49.154;9.280;2023-02-10T07:13:08;101873.97;;;-5.05;100.00
13080;BME280;6606;49.154;9.280;2023-02-10T07:15:49;101876.94;;;-4.98;100.00
13080;BME280;6606;49.154;9.280;2023-02-10T07:18:31;101882.13;;;-4.98;100.00
13080;BME280;6606;49.154;9.280;2023-02-10T07:21:13;101884.34;;;-4.88;100.00
13080;BME280;6606;49.154;9.280;2023-02-10T07:23:55;101880.19;;;-4.66;100.00
13080;BME280;6606;49.154;9.280;2023-02-10T07:26:38;101882.25;;;-4.59;100.00
13080;BME280;6606;49.154;9.280;2023-02-10T07:29:20;101873.00;;;-4.54;100.00
13080;BME280;6606;49.154;9.280;2023-02-10T07:32:01;101870.81;;;-4.45;100.00
13080;BME280;6606;49.154;9.280;2023-02-10T07:34:43;101870.53;;;-4.33;100.00
13080;BME280;6606;49.154;9.280;2023-02-10T07:37:26;101871.22;;;-4.17;100.00
13080;BME280;6606;49.154;9.280;2023-02-10T07:40:09;101867.19;;;-4.11;100.00
13080;BME280;6606;49.154;9.280;2023-02-10T07:42:52;101865.56;;;-4.09;100.00
13080;BME280;6606;49.154;9.280;2023-02-10T07:45:45;101859.97;;;-3.99;100.00
13080;BME280;6606;49.154;9.280;2023-02-10T07:48:27;101856.03;;;-3.90;100.00
13080;BME280;6606;49.154;9.280;2023-02-10T07:51:09;101866.63;;;-3.84;100.00
13080;BME280;6606;49.154;9.280;2023-02-10T07:53:50;101865.88;;;-3.82;100.00
13080;BME280;6606;49.154;9.280;2023-02-10T07:56:32;101868.94;;;-3.71;100.00
13080;BME280;6606;49.154;9.280;2023-02-10T07:59:15;101874.41;;;-3.65;100.00
13080;BME280;6606;49.154;9.280;2023-02-10T08:01:57;101874.91;;;-3.53;100.00
13080;BME280;6606;49.154;9.280;2023-02-10T08:04:38;101875.19;;;-3.46;100.00
13080;BME280;6606;49.154;9.280;2023-02-10T08:07:20;101870.50;;;-3.34;100.00
13080;BME280;6606;49.154;9.280;2023-02-10T08:10:03;101874.69;;;-3.17;100.00
13080;BME280;6606;49.154;9.280;2023-02-10T08:12:45;101880.97;;;-3.12;100.00
13080;BME280;6606;49.154;9.280;2023-02-10T08:15:28;101878.28;;;-2.92;100.00
13080;BME280;6606;49.154;9.280;2023-02-10T08:18:10;101880.66;;;-2.76;100.00
13080;BME280;6606;49.154;9.280;2023-02-10T08:20:52;101883.41;;;-2.50;100.00
13080;BME280;6606;49.154;9.280;2023-02-10T08:23:34;101886.69;;;-2.32;100.00
13080;BME280;6606;49.154;9.280;2023-02-10T08:26:16;101878.59;;;-2.17;100.00
13080;BME280;6606;49.154;9.280;2023-02-10T08:28:57;101880.16;;;-1.98;100.00
13080;BME280;6606;49.154;9.280;2023-02-10T08:31:41;101877.28;;;-1.82;100.00
13080;BME280;6606;49.154;9.280;2023-02-10T08:34:23;101867.16;;;-1.74;100.00
13080;BME280;6606;49.154;9.280;2023-02-10T08:37:04;101872.00;;;-1.59;100.00
13080;BME280;6606;49.154;9.280;2023-02-10T08:39:46;101873.84;;;-1.31;100.00
13080;BME280;6606;49.154;9.280;2023-02-10T08:42:28;101870.91;;;-1.15;100.00
13080;BME280;6606;49.154;9.280;2023-02-10T08:45:10;101868.66;;;-1.04;100.00
13080;BME280;6606;49.154;9.280;2023-02-10T08:47:53;101869.47;;;-0.79;100.00
13080;BME280;6606;49.154;9.280;2023-02-10T08:50:35;101871.47;;;-0.71;100.00
13080;BME280;6606;49.154;9.280;2023-02-10T08:53:16;101874.16;;;-0.68;100.00
13080;BME280;6606;49.154;9.280;2023-02-10T08:56:00;101872.81;;;-0.55;100.00
13080;BME280;6606;49.154;9.280;2023-02-10T08:58:42;101880.41;;;-0.34;100.00
13080;BME280;6606;49.154;9.280;2023-02-10T09:01:25;101885.72;;;-0.29;100.00
13080;BME280;6606;49.154;9.280;2023-02-10T09:04:08;101881.91;;;-0.12;100.00
13080;BME280;6606;49.154;9.280;2023-02-10T09:06:50;101894.00;;;-0.14;100.00
13080;BME280;6606;49.154;9.280;2023-02-10T09:09:37;101890.22;;;0.05;100.00
13080;BME280;6606;49.154;9.280;2023-02-10T09:12:19;101895.41;;;0.04;100.00
13080;BME280;6606;49.154;9.280;2023-02-10T09:15:00;101898.53;;;0.22;100.00
13080;BME280;6606;49.154;9.280;2023-02-10T09:17:42;101907.03;;;0.47;100.00
13080;BME280;6606;49.154;9.280;2023-02-10T09:20:25;101902.16;;;0.27;100.00
13080;BME280;6606;49.154;9.280;2023-02-10T09:23:07;101913.00;;;0.42;100.00
13080;BME280;6606;49.154;9.280;2023-02-10T09:25:52;101903.03;;;0.28;100.00
13080;BME280;6606;49.154;9.280;2023-02-10T09:28:35;101898.53;;;0.54;100.00
13080;BME280;6606;49.154;9.280;2023-02-10T09:31:17;101900.53;;;0.64;100.00
13080;BME280;6606;49.154;9.280;2023-02-10T09:34:03;101898.16;;;0.73;100.00
13080;BME280;6606;49.154;9.280;2023-02-10T09:36:46;101888.97;;;0.87;100.00
13080;BME280;6606;49.154;9.280;2023-02-10T09:39:28;101895.41;;;1.02;100.00
13080;BME280;6606;49.154;9.280;2023-02-10T09:42:20;101898.88;;;1.01;100.00
13080;BME280;6606;49.154;9.280;2023-02-10T09:45:11;101889.16;;;1.31;100.00
13080;BME280;6606;49.154;9.280;2023-02-10T09:47:58;101891.81;;;1.72;100.00
13080;BME280;6606;49.154;9.280;2023-02-10T09:50:51;101891.63;;;2.04;100.00
13080;BME280;6606;49.154;9.280;2023-02-10T09:53:37;101899.91;;;1.83;100.00
13080;BME280;6606;49.154;9.280;2023-02-10T09:56:20;101896.41;;;1.83;100.00
13080;BME280;6606;49.154;9.280;2023-02-10T09:59:05;101894.63;;;1.82;100.00
13080;BME280;6606;49.154;9.280;2023-02-10T10:01:50;101896.91;;;2.07;100.00
13080;BME280;6606;49.154;9.280;2023-02-10T10:04:33;101905.84;;;2.18;100.00
13080;BME280;6606;49.154;9.280;2023-02-10T10:07:21;101917.63;;;1.98;100.00
13080;BME280;6606;49.154;9.280;2023-02-10T10:10:13;101917.34;;;2.25;100.00
13080;BME280;6606;49.154;9.280;2023-02-10T10:12:56;101921.03;;;2.36;100.00
13080;BME280;6606;49.154;9.280;2023-02-10T10:15:44;101907.81;;;2.76;100.00
13080;BME280;6606;49.154;9.280;2023-02-10T10:18:34;101907.19;;;2.89;100.00
13080;BME280;6606;49.154;9.280;2023-02-10T10:21:23;101903.13;;;3.08;100.00
13080;BME280;6606;49.154;9.280;2023-02-10T10:24:20;101907.94;;;2.82;100.00
13080;BME280;6606;49.154;9.280;2023-02-10T10:27:16;101910.25;;;3.17;100.00
13080;BME280;6606;49.154;9.280;2023-02-10T10:30:05;101903.44;;;3.28;100.00
13080;BME280;6606;49.154;9.280;2023-02-10T10:32:52;101899.47;;;3.55;100.00
13080;BME280;6606;49.154;9.280;2023-02-10T10:35:39;101896.13;;;3.63;100.00
13080;BME280;6606;49.154;9.280;2023-02-10T10:38:27;101903.97;;;3.62;100.00
13080;BME280;6606;49.154;9.280;2023-02-10T10:41:14;101898.16;;;3.86;100.00
13080;BME280;6606;49.154;9.280;2023-02-10T10:43:58;101893.38;;;4.23;100.00
13080;BME280;6606;49.154;9.280;2023-02-10T10:46:43;101896.75;;;4.12;100.00
13080;BME280;6606;49.154;9.280;2023-02-10T10:49:26;101894.22;;;4.18;100.00
13080;BME280;6606;49.154;9.280;2023-02-10T10:52:23;101896.59;;;3.99;100.00
13080;BME280;6606;49.154;9.280;2023-02-10T10:55:13;101897.59;;;4.10;100.00
13080;BME280;6606;49.154;9.280;2023-02-10T10:57:57;101891.94;;;4.51;100.00
13080;BME280;6606;49.154;9.280;2023-02-10T11:00:49;101889.41;;;4.60;100.00
13080;BME280;6606;49.154;9.280;2023-02-10T11:03:32;101890.41;;;4.71;100.00
13080;BME280;6606;49.154;9.280;2023-02-10T11:06:15;101887.94;;;4.88;100.00
13080;BME280;6606;49.154;9.280;2023-02-10T11:09:00;101887.94;;;4.88;100.00
13080;BME280;6606;49.154;9.280;2023-02-10T11:11:42;101891.38;;;4.79;100.00
13080;BME280;6606;49.154;9.280;2023-02-10T11:14:26;101883.78;;;5.15;100.00
13080;BME280;6606;49.154;9.280;2023-02-10T11:17:20;101881.13;;;5.13;100.00
13080;BME280;6606;49.154;9.280;2023-02-10T11:20:18;101880.31;;;5.19;100.00
13080;BME280;6606;49.154;9.280;2023-02-10T11:23:04;101871.66;;;5.38;100.00
13080;BME280;6606;49.154;9.280;2023-02-10T11:25:46;101872.72;;;5.66;100.00
13080;BME280;6606;49.154;9.280;2023-02-10T11:28:30;101875.25;;;5.49;100.00
13080;BME280;6606;49.154;9.280;2023-02-10T11:31:23;101874.34;;;5.47;100.00
13080;BME280;6606;49.154;9.280;2023-02-10T11:34:16;101867.19;;;5.23;100.00
13080;BME280;6606;49.154;9.280;2023-02-10T11:37:10;101869.00;;;5.31;98.42
13080;BME280;6606;49.154;9.280;2023-02-10T11:39:54;101870.91;;;5.56;99.44
13080;BME280;6606;49.154;9.280;2023-02-10T11:45:58;101861.25;;;5.50;85.34
13080;BME280;6606;49.154;9.280;2023-02-10T11:48:52;101858.69;;;5.64;86.70
13080;BME280;6606;49.154;9.280;2023-02-10T11:51:36;101860.28;;;5.38;90.61
13080;BME280;6606;49.154;9.280;2023-02-10T11:54:18;101849.88;;;5.59;90.35
13080;BME280;6606;49.154;9.280;2023-02-10T11:57:17;101849.75;;;5.35;86.94
13080;BME280;6606;49.154;9.280;2023-02-10T12:00:25;101852.44;;;5.47;91.74
13080;BME280;6606;49.154;9.280;2023-02-10T12:03:35;101848.13;;;5.63;87.38
13080;BME280;6606;49.154;9.280;2023-02-10T12:06:24;101839.41;;;5.71;87.44
13080;BME280;6606;49.154;9.280;2023-02-10T12:09:18;101848.09;;;5.52;85.84
13080;BME280;6606;49.154;9.280;2023-02-10T12:12:08;101842.69;;;5.31;91.48
13080;BME280;6606;49.154;9.280;2023-02-10T12:14:57;101834.00;;;5.44;90.47
13080;BME280;6606;49.154;9.280;2023-02-10T12:17:48;101833.31;;;5.79;88.71
13080;BME280;6606;49.154;9.280;2023-02-10T12:20:40;101838.44;;;5.56;88.60
13080;BME280;6606;49.154;9.280;2023-02-10T12:23:38;101829.72;;;5.60;83.44
13080;BME280;6606;49.154;9.280;2023-02-10T12:26:28;101829.03;;;5.96;83.84
13080;BME280;6606;49.154;9.280;2023-02-10T12:29:26;101821.19;;;6.24;80.81
13080;BME280;6606;49.154;9.280;2023-02-10T12:32:17;101817.53;;;5.83;80.22
13080;BME280;6606;49.154;9.280;2023-02-10T12:35:18;101813.31;;;6.22;83.24
13080;BME280;6606;49.154;9.280;2023-02-10T12:38:17;101815.94;;;6.22;81.39
13080;BME280;6606;49.154;9.280;2023-02-10T12:41:06;101810.69;;;6.28;77.90
13080;BME280;6606;49.154;9.280;2023-02-10T12:43:59;101808.97;;;6.49;77.52
13080;BME280;6606;49.154;9.280;2023-02-10T12:46:51;101803.69;;;6.58;77.65
13080;BME280;6606;49.154;9.280;2023-02-10T12:49:45;101797.56;;;6.88;78.69
13080;BME280;6606;49.154;9.280;2023-02-10T12:52:34;101796.66;;;6.81;72.98
13080;BME280;6606;49.154;9.280;2023-02-10T12:55:20;101803.69;;;6.47;70.20
13080;BME280;6606;49.154;9.280;2023-02-10T12:58:09;101808.94;;;6.30;71.01
13080;BME280;6606;49.154;9.280;2023-02-10T13:01:03;101802.81;;;6.39;73.18
13080;BME280;6606;49.154;9.280;2023-02-10T13:03:48;101801.06;;;6.72;74.71
13080;BME280;6606;49.154;9.280;2023-02-10T13:06:35;101791.38;;;6.55;74.99
13080;BME280;6606;49.154;9.280;2023-02-10T13:09:23;101796.69;;;6.65;72.16
13080;BME280;6606;49.154;9.280;2023-02-10T13:12:13;101794.03;;;6.42;76.25
13080;BME280;6606;49.154;9.280;2023-02-10T13:15:01;101788.78;;;6.62;76.89
13080;BME280;6606;49.154;9.280;2023-02-10T13:17:49;101787.00;;;6.94;72.21
13080;BME280;6606;49.154;9.280;2023-02-10T13:20:39;101789.63;;;6.93;71.73
13080;BME280;6606;49.154;9.280;2023-02-10T13:23:24;101789.63;;;7.05;73.68
13080;BME280;6606;49.154;9.280;2023-02-10T13:26:25;101783.47;;;7.08;71.72
13080;BME280;6606;49.154;9.280;2023-02-10T13:29:17;101775.53;;;7.23;70.83
13080;BME280;6606;49.154;9.280;2023-02-10T13:32:22;101778.13;;;7.32;70.47
13080;BME280;6606;49.154;9.280;2023-02-10T13:35:52;101781.69;;;7.16;74.26
13080;BME280;6606;49.154;9.280;2023-02-10T13:38:35;101790.47;;;7.16;68.08
13080;BME280;6606;49.154;9.280;2023-02-10T13:41:24;101779.84;;;7.42;69.71
13080;BME280;6606;49.154;9.280;2023-02-10T13:44:28;101784.22;;;7.57;70.29
13080;BME280;6606;49.154;9.280;2023-02-10T13:47:16;101778.13;;;7.38;66.94
13080;BME280;6606;49.154;9.280;2023-02-10T13:50:02;101779.00;;;7.36;66.57
13080;BME280;6606;49.154;9.280;2023-02-10T13:52:52;101775.41;;;7.51;69.76
13080;BME280;6606;49.154;9.280;2023-02-10T13:55:41;101776.41;;;7.16;70.16
13080;BME280;6606;49.154;9.280;2023-02-10T13:58:47;101784.34;;;6.96;69.77
13080;BME280;6606;49.154;9.280;2023-02-10T14:01:31;101781.69;;;7.14;72.74
13080;BME280;6606;49.154;9.280;2023-02-10T14:04:27;101772.03;;;7.13;71.80
13080;BME280;6606;49.154;9.280;2023-02-10T14:07:30;101774.63;;;7.21;70.80
13080;BME280;6606;49.154;9.280;2023-02-10T14:10:32;101773.81;;;7.07;68.53
13080;BME280;6606;49.154;9.280;2023-02-10T14:13:22;101775.56;;;6.95;66.21
13080;BME280;6606;49.154;9.280;2023-02-10T14:16:24;101781.72;;;7.10;66.57
13080;BME280;6606;49.154;9.280;2023-02-10T14:19:21;101777.31;;;7.01;66.35
13080;BME280;6606;49.154;9.280;2023-02-10T14:22:04;101770.25;;;7.18;68.08
13080;BME280;6606;49.154;9.280;2023-02-10T14:24:46;101769.34;;;7.29;66.74
13080;BME280;6606;49.154;9.280;2023-02-10T14:27:30;101766.75;;;7.13;67.17
13080;BME280;6606;49.154;9.280;2023-02-10T14:30:18;101775.53;;;7.06;66.72
13080;BME280;6606;49.154;9.280;2023-02-10T14:33:01;101764.16;;;6.96;69.09
13080;BME280;6606;49.154;9.280;2023-02-10T14:35:48;101772.91;;;7.04;71.11
13080;BME280;6606;49.154;9.280;2023-02-10T14:38:32;101759.72;;;7.12;71.47